createdAt,value
2024-03-27T00:00:00.817Z,3.59
2024-03-27T00:15:00.710Z,3.59
2024-03-27T00:30:00.273Z,2.78
2024-03-27T00:45:00.464Z,2.78
2024-03-27T01:00:00.454Z,2.78
2024-03-27T01:15:00.330Z,2.78
2024-03-27T01:30:01.465Z,2.44
2024-03-27T01:45:00.345Z,2.44
2024-03-27T02:00:00.872Z,2.44
2024-03-27T02:15:00.575Z,2.44
2024-03-27T02:30:00.350Z,3.02
2024-03-27T02:45:00.412Z,3.02
2024-03-27T03:00:00.447Z,3.02
2024-03-27T03:15:00.573Z,3.02
2024-03-27T03:30:01.063Z,2.52
2024-03-27T03:45:00.401Z,2.52
2024-03-27T04:00:00.655Z,2.52
2024-03-27T04:15:00.418Z,2.52
2024-03-27T04:30:00.300Z,2.66
2024-03-27T04:45:01.398Z,2.66
2024-03-27T05:00:00.819Z,2.66
2024-03-27T05:15:00.645Z,2.66
2024-03-27T05:30:00.659Z,2.43
2024-03-27T05:45:00.692Z,2.43
2024-03-27T06:00:00.908Z,1.47
2024-03-27T06:15:00.447Z,1.47
2024-03-27T06:30:01.001Z,2.72
2024-03-27T06:45:03.812Z,2.72
2024-03-27T07:00:00.606Z,2.72
2024-03-27T07:15:00.475Z,2.72
2024-03-27T07:30:00.847Z,5.05
2024-03-27T07:45:02.644Z,5.05
2024-03-27T08:00:00.258Z,5.05
2024-03-27T08:15:00.950Z,5.05
2024-03-27T08:30:00.639Z,5.44
2024-03-27T08:45:00.543Z,5.44
2024-03-27T09:00:02.459Z,5.44
2024-03-27T09:15:00.507Z,5.44
2024-03-27T09:30:01.881Z,5.44
2024-03-27T09:45:00.503Z,5.05
2024-03-27T10:00:00.812Z,5.05
2024-03-27T10:15:00.755Z,5.05
2024-03-27T10:30:01.064Z,4.25
2024-03-27T10:45:00.480Z,4.25
2024-03-27T11:00:00.427Z,4.25
2024-03-27T11:15:00.878Z,4.25
2024-03-27T11:30:00.278Z,5
2024-03-27T11:45:00.422Z,5
2024-03-27T12:00:00.814Z,4.1
2024-03-27T12:15:00.430Z,4.1
2024-03-27T12:30:00.433Z,5.26
2024-03-27T12:45:00.451Z,5.26
2024-03-27T13:00:00.552Z,5.26
2024-03-27T13:15:00.448Z,5.26
2024-03-27T13:30:00.363Z,5.26
2024-03-27T13:45:00.455Z,6.41
2024-03-27T14:00:00.781Z,6.41
2024-03-27T14:15:00.440Z,6.41
2024-03-27T14:30:00.856Z,6.55
2024-03-27T14:45:00.285Z,6.55
2024-03-27T15:00:00.596Z,6.55
2024-03-27T15:15:00.454Z,6.55
2024-03-27T15:30:00.300Z,4.75
2024-03-27T15:45:00.307Z,4.75
2024-03-27T16:00:00.458Z,4.75
2024-03-27T16:15:00.303Z,4.75
2024-03-27T16:30:00.390Z,3.46
2024-03-27T16:45:00.473Z,3.46
2024-03-27T17:00:01.318Z,3.46
2024-03-27T17:15:00.514Z,3.46
2024-03-27T17:30:00.747Z,3.28
2024-03-27T17:45:00.615Z,3.28
2024-03-27T18:00:00.832Z,3.28
2024-03-27T18:15:00.259Z,2.36
2024-03-27T18:30:00.379Z,1.76
2024-03-27T18:45:00.350Z,1.76
2024-03-27T19:00:00.844Z,1.76
2024-03-27T19:15:00.468Z,1.76
2024-03-27T19:30:00.459Z,0.86
2024-03-27T19:45:01.279Z,0.86
2024-03-27T20:00:00.361Z,0.86
2024-03-27T20:15:01.000Z,0.86
2024-03-27T20:30:01.032Z,1.8
2024-03-27T20:45:00.499Z,1.8
2024-03-27T21:00:00.387Z,1.8
2024-03-27T21:15:01.308Z,1.8
2024-03-27T21:30:00.648Z,3.01
2024-03-27T21:45:00.564Z,3.01
2024-03-27T23:00:01.237Z,2.21
2024-03-27T23:15:00.802Z,2.21
2024-03-27T23:30:00.379Z,2.76
2024-03-27T23:45:00.503Z,2.76
